Time;durP1;ratioP1;P1;durP2;ratioP2;P2;SDS_P1;SDS_P2;PMS_P1;PMS_P2;Temp;Humidity;BMP_temperature;BMP_pressure;BME280_temperature;BME280_humidity;BME280_pressure;Samples;Min_cycle;Max_cycle;Signal;HPM_P1;HPM_P2
2024/03/08 00:04:59;;;;;;;141.37;54.05;;;;;;;1.72;100.00;101648.71;5043706;56;1140645;-73
2024/03/08 00:10:11;;;;;;;147.03;55.13;;;;;;;1.67;100.00;101641.02;5098396;56;1143249;-72
2024/03/08 00:15:18;;;;;;;155.07;58.83;;;;;;;1.66;100.00;101638.00;5099403;56;1143111;-72
2024/03/08 00:20:24;;;;;;;170.22;61.25;;;;;;;1.63;100.00;101638.06;5099286;56;1143063;-71
2024/03/08 00:25:30;;;;;;;149.30;56.90;;;;;;;1.58;100.00;101635.14;5118561;56;1142983;-74
2024/03/08 00:30:35;;;;;;;137.33;50.93;;;;;;;1.54;100.00;101635.64;5098336;56;1142695;-71
2024/03/08 00:35:41;;;;;;;110.53;44.53;;;;;;;1.52;100.00;101632.24;5092878;56;1142899;-78
2024/03/08 00:40:47;;;;;;;84.63;35.57;;;;;;;1.49;100.00;101633.61;5015402;56;1142984;-74
2024/03/08 00:45:52;;;;;;;73.78;31.45;;;;;;;1.46;100.00;101632.37;4996594;57;1140885;-77
2024/03/08 00:50:58;;;;;;;71.07;31.03;;;;;;;1.42;100.00;101628.10;4983471;57;1140903;-75
2024/03/08 00:56:04;;;;;;;74.53;32.33;;;;;;;1.24;100.00;101639.78;4934174;57;1140809;-78
2024/03/08 01:01:09;;;;;;;113.52;38.00;;;;;;;1.18;100.00;101637.77;4915331;57;1141120;-71
2024/03/08 01:06:15;;;;;;;89.77;34.33;;;;;;;0.95;100.00;101636.48;4943718;57;1142941;-80
2024/03/08 01:11:21;;;;;;;77.43;33.70;;;;;;;0.95;100.00;101633.87;4911649;58;1140830;-74
2024/03/08 01:16:26;;;;;;;80.00;36.23;;;;;;;1.01;100.00;101630.30;4930520;58;1140769;-77
2024/03/08 01:21:32;;;;;;;83.40;33.73;;;;;;;1.03;100.00;101623.31;4910915;58;1140877;-71
2024/03/08 01:26:38;;;;;;;87.50;33.17;;;;;;;1.03;100.00;101623.31;4910931;58;1140629;-75
2024/03/08 01:31:44;;;;;;;81.53;33.33;;;;;;;1.01;100.00;101612.92;4930087;58;1140969;-73
2024/03/08 01:36:49;;;;;;;90.28;35.80;;;;;;;1.01;100.00;101615.97;4915410;57;1141093;-78
2024/03/08 01:41:55;;;;;;;81.20;33.13;;;;;;;0.99;100.00;101612.54;4916895;57;1140959;-75
2024/03/08 01:47:02;;;;;;;74.50;33.17;;;;;;;0.96;100.00;101608.69;5016382;56;1140845;-73
2024/03/08 01:52:07;;;;;;;81.57;32.43;;;;;;;0.95;100.00;101604.37;4996649;56;1140871;-79
2024/03/08 01:57:15;;;;;;;68.67;32.43;;;;;;;0.89;100.00;101596.70;4992904;57;1140676;-76
2024/03/08 02:02:22;;;;;;;60.38;27.20;;;;;;;0.84;100.00;101598.09;4995881;56;1140933;-75
2024/03/08 02:07:28;;;;;;;66.03;25.50;;;;;;;0.79;100.00;101594.70;5015526;56;1140929;-72
2024/03/08 02:12:34;;;;;;;79.30;31.57;;;;;;;0.75;100.00;101582.66;4996387;56;1140865;-74
2024/03/08 02:17:39;;;;;;;81.30;31.17;;;;;;;0.78;100.00;101592.13;5003260;56;1140906;-79
2024/03/08 02:22:45;;;;;;;98.20;35.80;;;;;;;0.73;100.00;101589.64;5089414;56;1140545;-77
2024/03/08 02:27:51;;;;;;;87.23;34.13;;;;;;;0.55;100.00;101594.75;4996778;56;1140659;-76
2024/03/08 02:32:57;;;;;;;102.33;38.70;;;;;;;0.50;100.00;101595.72;4884173;57;1140953;-74
2024/03/08 02:38:04;;;;;;;96.97;37.05;;;;;;;0.49;100.00;101587.05;4934711;58;1142887;-80
2024/03/08 02:43:10;;;;;;;84.28;34.98;;;;;;;0.52;100.00;101585.70;4963303;56;1140672;-76
2024/03/08 02:48:16;;;;;;;76.28;31.85;;;;;;;0.53;100.00;101582.66;4963312;56;1140781;-76
2024/03/08 02:53:22;;;;;;;80.57;32.30;;;;;;;0.48;100.00;101581.43;5042866;56;1140851;-71
2024/03/08 02:58:28;;;;;;;84.37;31.60;;;;;;;0.47;100.00;101572.34;5034719;56;1140672;-80
2024/03/08 03:03:33;;;;;;;105.13;35.90;;;;;;;0.44;100.00;101576.34;4934328;58;1140954;-78
2024/03/08 03:08:42;;;;;;;130.23;44.07;;;;;;;0.40;100.00;101575.97;4995942;57;1142769;-73
2024/03/08 03:13:48;;;;;;;128.63;40.83;;;;;;;0.36;100.00;101569.95;5034724;57;1142581;-70
2024/03/08 03:18:53;;;;;;;123.65;41.63;;;;;;;0.36;100.00;101573.86;5015570;57;1142892;-78
2024/03/08 03:23:59;;;;;;;124.35;42.05;;;;;;;0.31;100.00;101571.34;5014531;57;1143083;-79
2024/03/08 03:29:08;;;;;;;110.10;37.67;;;;;;;0.19;100.00;101567.67;5034830;57;1144374;-77
2024/03/08 03:34:15;;;;;;;63.73;26.67;;;;;;;0.18;100.00;101570.30;5014802;57;1142785;-71
2024/03/08 03:39:22;;;;;;;55.87;23.90;;;;;;;0.14;100.00;101565.61;5014606;57;1140964;-82
2024/03/08 03:44:28;;;;;;;51.85;24.70;;;;;;;0.08;100.00;101559.20;4998806;57;1140720;-74
2024/03/08 03:49:33;;;;;;;58.13;24.63;;;;;;;0.06;100.00;101558.38;5015335;57;1140805;-72
2024/03/08 03:54:39;;;;;;;64.27;26.43;;;;;;;0.06;100.00;101564.02;4971010;57;1140964;-70
2024/03/08 03:59:45;;;;;;;65.30;28.87;;;;;;;0.07;100.00;101561.39;4996607;56;1141000;-77
2024/03/08 04:04:50;;;;;;;65.20;27.57;;;;;;;0.03;100.00;101559.72;5022779;56;1140551;-74
2024/03/08 04:09:56;;;;;;;70.70;28.80;;;;;;;-0.01;100.00;101551.58;5078910;56;1140851;-71
2024/03/08 04:15:01;;;;;;;63.15;29.02;;;;;;;-0.02;100.00;101549.86;5077908;56;1142881;-73
2024/03/08 04:20:11;;;;;;;62.27;26.17;;;;;;;-0.04;100.00;101547.73;5053154;56;1142958;-79
2024/03/08 04:25:17;;;;;;;65.33;25.97;;;;;;;-0.08;100.00;101548.22;5078036;56;1143065;-77
2024/03/08 04:30:22;;;;;;;62.88;26.12;;;;;;;-0.07;100.00;101549.08;5077720;56;1143238;-73
2024/03/08 04:35:28;;;;;;;64.77;25.17;;;;;;;-0.10;100.00;101547.82;5015632;55;1142740;-76
2024/03/08 04:40:34;;;;;;;54.90;24.37;;;;;;;-0.14;100.00;101543.55;4991293;57;1142989;-71
2024/03/08 04:45:42;;;;;;;62.00;23.67;;;;;;;-0.22;100.00;101541.54;5003907;57;1142831;-72
2024/03/08 04:50:47;;;;;;;57.77;23.73;;;;;;;-0.23;100.00;101541.98;5016523;57;1142681;-70
2024/03/08 04:55:53;;;;;;;51.50;23.43;;;;;;;-0.23;100.00;101541.13;5098768;56;1142864;-69
2024/03/08 05:00:58;;;;;;;57.93;23.18;;;;;;;-0.26;100.00;101539.87;5099090;56;1142591;-75
2024/03/08 05:06:04;;;;;;;69.90;25.70;;;;;;;-0.30;100.00;101526.49;5117194;56;1143108;-75
2024/03/08 05:11:09;;;;;;;54.73;24.50;;;;;;;-0.31;100.00;101536.06;5081005;56;1142794;-76
2024/03/08 05:16:15;;;;;;;52.10;23.13;;;;;;;-0.34;100.00;101536.11;5089398;56;1143157;-79
2024/03/08 05:21:21;;;;;;;56.47;23.30;;;;;;;-0.37;100.00;101540.05;5100384;56;1152621;-81
2024/03/08 05:26:26;;;;;;;60.00;22.83;;;;;;;-0.43;100.00;101533.64;5119312;56;1142935;-79
2024/03/08 05:31:36;;;;;;;57.20;22.73;;;;;;;-0.43;100.00;101535.80;5096579;55;1143002;-82
2024/03/08 05:36:46;;;;;;;50.43;22.90;;;;;;;-0.43;100.00;101532.34;5069906;56;1142824;-80
2024/03/08 05:41:52;;;;;;;60.90;22.47;;;;;;;-0.44;100.00;101537.98;5034186;56;1143162;-82
2024/03/08 05:46:58;;;;;;;58.98;24.50;;;;;;;-0.46;100.00;101541.04;4961188;57;1142901;-82
2024/03/08 05:52:04;;;;;;;55.23;22.10;;;;;;;-0.50;100.00;101535.94;5064709;56;1143212;-83
2024/03/08 05:57:10;;;;;;;61.08;26.02;;;;;;;-0.48;100.00;101536.34;5044317;56;1143028;-81
2024/03/08 06:02:19;;;;;;;63.07;27.03;;;;;;;-0.57;100.00;101533.86;5073022;56;1142867;-80
2024/03/08 06:07:23;;;;;;;70.13;28.87;;;;;;;-0.80;100.00;101539.42;5075911;56;1143147;-81
2024/03/08 06:12:32;;;;;;;67.80;30.60;;;;;;;-0.95;100.00;101538.34;5116977;55;1143029;-79
2024/03/08 06:17:39;;;;;;;72.57;32.57;;;;;;;-0.92;100.00;101543.94;5096693;56;1143113;-82
2024/03/08 06:22:44;;;;;;;85.57;35.23;;;;;;;-0.58;100.00;101543.84;5095797;56;1143052;-85
2024/03/08 06:27:51;;;;;;;82.67;36.33;;;;;;;-0.24;100.00;101548.50;5113294;56;1142915;-85
2024/03/08 06:32:57;;;;;;;98.05;37.53;;;;;;;0.05;100.00;101550.15;5007670;57;1142976;-83
2024/03/08 06:38:03;;;;;;;103.07;40.98;;;;;;;0.31;100.00;101549.22;5071575;56;1140960;-82
2024/03/08 06:43:11;;;;;;;106.77;43.17;;;;;;;0.57;100.00;101546.58;5083699;56;1142900;-81
2024/03/08 06:48:17;;;;;;;118.47;50.77;;;;;;;0.89;100.00;101538.10;4974937;57;1142845;-82
2024/03/08 06:53:23;;;;;;;106.03;40.70;;;;;;;1.23;100.00;101535.58;4992962;57;1143061;-81
2024/03/08 06:58:29;;;;;;;86.67;37.03;;;;;;;1.49;100.00;101538.45;4996372;58;1142749;-83
2024/03/08 07:03:35;;;;;;;106.67;44.53;;;;;;;1.72;100.00;101540.05;4995336;57;1140609;-80
2024/03/08 07:08:40;;;;;;;79.05;36.40;;;;;;;1.96;100.00;101535.13;4987083;56;1142806;-79
2024/03/08 07:13:49;;;;;;;59.63;28.30;;;;;;;2.17;100.00;101530.62;5098422;56;1140835;-80
2024/03/08 07:18:55;;;;;;;69.30;31.42;;;;;;;2.34;100.00;101532.33;5073796;56;1140531;-85
2024/03/08 07:29:05;;;;;;;65.87;29.98;;;;;;;2.62;100.00;101527.63;4959299;57;1141033;-80
2024/03/08 07:34:12;;;;;;;71.07;31.73;;;;;;;2.85;100.00;101523.92;5011390;56;1141182;-76
2024/03/08 07:39:18;;;;;;;61.23;28.07;;;;;;;3.08;100.00;101523.20;5077379;56;1140805;-79
2024/03/08 07:44:24;;;;;;;71.35;29.05;;;;;;;3.30;100.00;101524.72;4995360;57;1141030;-76
2024/03/08 07:49:30;;;;;;;72.67;30.77;;;;;;;3.55;100.00;101520.41;5015468;56;1140766;-70
2024/03/08 07:54:36;;;;;;;93.47;41.80;;;;;;;3.76;100.00;101519.70;4964481;57;1140728;-71
2024/03/08 07:59:41;;;;;;;66.83;31.23;;;;;;;3.94;100.00;101517.38;5093029;56;1140756;-71
2024/03/08 08:04:47;;;;;;;66.37;30.43;;;;;;;4.10;100.00;101508.09;5044774;56;1140988;-71
2024/03/08 08:09:54;;;;;;;60.63;29.67;;;;;;;4.35;100.00;101502.38;5024438;56;1140933;-71
2024/03/08 08:15:00;;;;;;;55.23;28.07;;;;;;;4.53;100.00;101505.64;5024885;56;1140982;-71
2024/03/08 08:20:06;;;;;;;59.95;26.23;;;;;;;4.66;100.00;101493.38;5068681;56;1140921;-71
2024/03/08 08:25:15;;;;;;;56.17;30.00;;;;;;;4.92;100.00;101496.71;5067303;56;1140827;-72
2024/03/08 08:30:21;;;;;;;51.13;25.00;;;;;;;5.22;100.00;101488.55;5000190;57;1140873;-72
2024/03/08 08:35:28;;;;;;;45.48;23.55;;;;;;;5.41;100.00;101493.47;5094787;56;1141161;-71
2024/03/08 08:40:35;;;;;;;48.57;23.70;;;;;;;5.49;100.00;101493.17;4965987;57;1141038;-72
2024/03/08 08:45:42;;;;;;;66.37;29.80;;;;;;;5.59;100.00;101486.61;4939591;57;1140586;-71
2024/03/08 08:50:48;;;;;;;55.77;25.90;;;;;;;5.75;100.00;101490.77;5020183;57;1140843;-71
2024/03/08 08:55:54;;;;;;;57.00;27.93;;;;;;;5.93;100.00;101478.21;4935226;57;1140989;-70
2024/03/08 09:00:59;;;;;;;41.37;22.17;;;;;;;6.10;100.00;101478.80;4925001;58;1141044;-72
2024/03/08 09:06:11;;;;;;;47.50;24.23;;;;;;;6.30;100.00;101470.87;4885084;57;1140691;-71
2024/03/08 09:11:17;;;;;;;48.37;24.20;;;;;;;6.42;100.00;101472.08;4860110;58;1140661;-79
2024/03/08 09:16:22;;;;;;;45.30;22.07;;;;;;;6.60;100.00;101471.25;4880368;59;1140636;-80
2024/03/08 09:21:28;;;;;;;47.00;21.63;;;;;;;6.74;100.00;101466.67;4913632;58;1141359;-71
2024/03/08 09:26:34;;;;;;;29.33;17.87;;;;;;;6.80;100.00;101467.71;4904682;57;1141203;-71
2024/03/08 09:31:40;;;;;;;127.77;46.97;;;;;;;6.77;100.00;101467.39;4890289;58;1140811;-70
2024/03/08 09:36:46;;;;;;;46.80;21.23;;;;;;;6.80;100.00;101462.45;4897888;56;1142971;-71
2024/03/08 09:41:51;;;;;;;35.43;18.90;;;;;;;6.89;100.00;101459.38;4918695;58;1140600;-71
2024/03/08 09:46:59;;;;;;;41.10;19.40;;;;;;;6.90;100.00;101451.88;4916292;58;1141122;-71
2024/03/08 09:52:05;;;;;;;32.50;17.63;;;;;;;6.91;100.00;101451.81;4920595;58;1140884;-71
2024/03/08 09:57:10;;;;;;;32.85;17.85;;;;;;;6.95;100.00;101445.48;5016869;57;1141010;-70
2024/03/08 10:02:18;;;;;;;28.90;16.07;;;;;;;7.15;100.00;101442.38;5006206;57;1140980;-71
2024/03/08 10:07:24;;;;;;;33.17;17.47;;;;;;;7.17;100.00;101440.52;5044251;57;1140699;-71
2024/03/08 10:12:31;;;;;;;32.20;16.43;;;;;;;7.14;100.00;101438.89;5010851;57;1141163;-71
2024/03/08 10:17:37;;;;;;;31.50;17.87;;;;;;;7.16;100.00;101438.81;4992350;57;1141094;-71
2024/03/08 10:22:44;;;;;;;36.57;17.40;;;;;;;7.19;100.00;101435.55;5088320;56;1141109;-71
2024/03/08 10:27:50;;;;;;;27.37;16.20;;;;;;;7.24;100.00;101424.80;5074144;55;1140694;-71
2024/03/08 10:32:56;;;;;;;40.23;20.67;;;;;;;7.22;100.00;101427.52;5035999;56;1140826;-72
2024/03/08 10:38:07;;;;;;;31.15;16.37;;;;;;;7.29;100.00;101418.86;5128224;55;1150134;-71
2024/03/08 10:43:16;;;;;;;25.15;13.78;;;;;;;7.37;100.00;101420.17;5034844;55;1140685;-70
2024/03/08 10:48:35;;;;;;;21.90;13.73;;;;;;;7.40;96.03;101425.29;5087912;56;1141060;-72
2024/03/08 10:53:42;;;;;;;27.33;15.80;;;;;;;7.37;100.00;101420.17;5031920;56;1138694;-72
2024/03/08 10:58:49;;;;;;;22.67;13.13;;;;;;;7.37;95.74;101422.80;5092846;56;1140803;-72
2024/03/08 11:03:56;;;;;;;22.37;13.57;;;;;;;7.43;100.00;101411.59;4910661;57;1138536;-72
2024/03/08 11:09:01;;;;;;;25.67;14.20;;;;;;;7.53;100.00;101403.61;4962458;57;1141064;-71
2024/03/08 11:14:07;;;;;;;27.55;15.00;;;;;;;7.60;99.66;101394.48;4981073;56;1140978;-71
2024/03/08 11:19:17;;;;;;;26.80;13.13;;;;;;;7.69;96.71;101390.05;5102762;56;1138785;-70
2024/03/08 11:24:23;;;;;;;25.97;13.73;;;;;;;7.65;100.00;101384.09;5095393;56;1138586;-70
2024/03/08 11:29:35;;;;;;;23.57;14.17;;;;;;;7.79;99.11;101382.08;5010835;57;1140785;-71
2024/03/08 11:34:50;;;;;;;23.90;14.37;;;;;;;7.76;93.88;101376.97;4982898;57;1138659;-72
2024/03/08 11:39:59;;;;;;;30.27;15.07;;;;;;;7.78;97.83;101373.80;5088177;56;1138744;-71
2024/03/08 11:45:11;;;;;;;26.93;15.67;;;;;;;7.97;98.06;101354.74;5010175;56;1138482;-72
2024/03/08 11:50:20;;;;;;;36.08;19.82;;;;;;;8.12;96.51;101355.23;4948914;57;1139085;-72
2024/03/08 11:55:25;;;;;;;32.00;16.37;;;;;;;8.21;95.10;101349.95;4995020;56;1138850;-72
2024/03/08 12:00:35;;;;;;;26.03;15.70;;;;;;;8.30;92.65;101343.31;4893009;57;1138798;-71
2024/03/08 12:05:38;;;;;;;30.10;15.70;;;;;;;8.37;95.89;101340.30;4916354;57;1138838;-71
2024/03/08 12:10:43;;;;;;;30.27;17.20;;;;;;;8.55;93.54;101330.53;4955554;57;1138764;-71
2024/03/08 12:15:49;;;;;;;28.13;16.30;;;;;;;8.73;94.18;101334.73;4897164;57;1138893;-71
2024/03/08 12:21:25;;;;;;;33.33;18.13;;;;;;;8.87;92.36;101327.34;4938399;57;1138739;-72
2024/03/08 12:26:27;;;;;;;33.83;16.82;;;;;;;8.96;89.43;101314.11;4863061;58;1138834;-71
2024/03/08 12:31:32;;;;;;;29.80;15.87;;;;;;;8.96;89.50;101318.07;4949454;57;1138993;-72
2024/03/08 12:36:38;;;;;;;33.53;19.23;;;;;;;9.02;89.72;101315.91;4918600;57;1138775;-73
2024/03/08 12:41:44;;;;;;;33.58;19.75;;;;;;;9.00;86.09;101310.36;4966520;57;1138820;-71
2024/03/08 12:46:51;;;;;;;43.53;23.93;;;;;;;8.97;88.24;101306.11;4998272;57;1138838;-72
2024/03/08 12:51:57;;;;;;;33.20;18.57;;;;;;;9.11;88.94;101291.64;4933220;57;1138764;-72
2024/03/08 12:57:04;;;;;;;25.00;14.90;;;;;;;9.25;85.18;101288.64;4933805;57;1138939;-73
2024/03/08 13:02:11;;;;;;;24.30;12.50;;;;;;;9.40;88.39;101275.38;4982584;57;1138970;-72
2024/03/08 13:07:16;;;;;;;23.07;14.33;;;;;;;9.49;88.24;101272.16;4966631;57;1139265;-73
2024/03/08 13:12:23;;;;;;;24.63;14.78;;;;;;;9.62;87.58;101267.00;4972799;57;1138704;-71
2024/03/08 13:17:29;;;;;;;24.40;14.03;;;;;;;9.69;85.94;101257.73;4918503;57;1138694;-71
2024/03/08 13:22:34;;;;;;;25.20;14.90;;;;;;;9.79;82.43;101255.36;5017308;56;1140781;-71
2024/03/08 13:27:43;;;;;;;35.07;18.73;;;;;;;9.82;82.36;101250.73;5024539;56;1140921;-71
2024/03/08 13:32:48;;;;;;;62.23;35.40;;;;;;;9.76;77.64;101248.97;5003570;56;1140956;-73
2024/03/08 13:37:54;;;;;;;25.87;15.20;;;;;;;9.69;79.12;101243.68;4996768;57;1138704;-71
2024/03/08 13:43:00;;;;;;;24.53;15.87;;;;;;;9.73;80.36;101238.13;4986179;57;1151538;-72
2024/03/08 13:48:06;;;;;;;24.57;16.87;;;;;;;9.86;83.55;101229.80;5006825;57;1140746;-71
2024/03/08 13:53:12;;;;;;;30.90;15.55;;;;;;;9.87;78.69;101230.17;4962915;57;1140731;-71
2024/03/08 13:58:20;;;;;;;35.60;16.43;;;;;;;9.91;79.44;101222.06;4872841;58;1141018;-71
2024/03/08 14:03:25;;;;;;;30.23;15.77;;;;;;;10.01;80.76;101213.44;5011722;57;1140927;-71
2024/03/08 14:08:33;;;;;;;24.50;13.57;;;;;;;10.03;79.68;101208.91;4975532;58;1142888;-71
2024/03/08 14:13:46;;;;;;;25.73;14.27;;;;;;;10.07;80.94;101201.63;4950329;57;1142979;-71
2024/03/08 14:18:52;;;;;;;19.17;12.50;;;;;;;10.04;74.30;101197.86;5032202;56;1142853;-71
2024/03/08 14:23:57;;;;;;;24.27;14.30;;;;;;;9.97;79.72;101190.78;5118003;56;1143150;-71
2024/03/08 14:29:04;;;;;;;23.37;14.07;;;;;;;10.08;79.38;101192.25;5099211;56;1150126;-72
2024/03/08 14:34:11;;;;;;;30.55;14.38;;;;;;;10.08;78.31;101190.93;5099456;56;1142823;-71
2024/03/08 14:39:21;;;;;;;28.47;16.20;;;;;;;10.01;75.62;101194.94;5099185;55;1144476;-72
2024/03/08 14:44:29;;;;;;;26.47;15.03;;;;;;;9.91;74.62;101184.59;5118973;55;1142704;-72
2024/03/08 14:49:36;;;;;;;26.63;15.83;;;;;;;9.82;75.21;101179.87;5096785;55;1140914;-71
2024/03/08 14:54:43;;;;;;;38.17;16.73;;;;;;;9.83;76.22;101181.58;5053213;56;1141126;-70
2024/03/08 14:59:48;;;;;;;29.13;15.10;;;;;;;9.81;77.04;101175.06;5114421;56;1140738;-70
2024/03/08 15:04:57;;;;;;;29.20;18.07;;;;;;;9.78;78.05;101169.13;5086238;56;1140896;-71
2024/03/08 15:10:01;;;;;;;33.63;15.00;;;;;;;9.77;77.20;101164.81;5071615;56;1143704;-71
2024/03/08 15:15:09;;;;;;;57.08;25.50;;;;;;;9.72;77.83;101155.86;5098794;57;1140785;-77
2024/03/08 15:20:35;;;;;;;47.23;23.60;;;;;;;9.69;79.00;101160.48;5021184;56;1140870;-78
2024/03/08 15:25:26;;;;;;;23.38;15.23;;;;;;;9.67;78.20;101148.69;4905689;57;1140886;-80
2024/03/08 15:30:33;;;;;;;26.33;15.43;;;;;;;9.71;76.66;101142.27;5012971;58;1140678;-81
2024/03/08 15:35:39;;;;;;;29.00;16.77;;;;;;;9.87;79.02;101139.02;4915790;58;1140662;-76
2024/03/08 15:40:45;;;;;;;40.93;15.90;;;;;;;9.89;76.22;101138.92;4903675;58;1140743;-79
2024/03/08 15:45:50;;;;;;;27.47;16.37;;;;;;;9.72;76.21;101138.69;4998491;56;1140793;-73
2024/03/08 15:50:56;;;;;;;29.53;16.33;;;;;;;9.55;78.16;101134.10;4996233;57;1140609;-75
2024/03/08 15:56:09;;;;;;;25.80;15.77;;;;;;;9.49;80.10;101129.57;4994988;57;1140982;-78
2024/03/08 16:01:19;;;;;;;30.56;16.78;;;;;;;9.62;80.68;101125.70;4983529;57;1140758;-74
2024/03/08 16:06:25;;;;;;;35.43;17.47;;;;;;;10.51;82.43;101115.44;4958814;58;1141009;-77
2024/03/08 16:11:32;;;;;;;43.47;24.33;;;;;;;11.35;78.61;101110.88;4976213;57;1142824;-75
2024/03/08 16:16:41;;;;;;;68.20;35.73;;;;;;;11.77;79.49;101108.28;4946874;57;1142852;-74
2024/03/08 16:21:46;;;;;;;68.63;33.93;;;;;;;12.03;79.52;101107.71;4953374;58;1142785;-74
2024/03/08 16:26:52;;;;;;;78.43;40.50;;;;;;;11.47;78.05;101108.67;5012751;57;1142508;-78
2024/03/08 16:31:58;;;;;;;87.13;40.23;;;;;;;10.78;79.00;101110.91;4958619;57;1142549;-74
2024/03/08 16:37:05;;;;;;;91.80;42.00;;;;;;;10.29;80.38;101105.92;5046421;56;1142816;-75
2024/03/08 16:42:11;;;;;;;85.57;36.80;;;;;;;9.91;81.79;101109.77;4992267;57;1140607;-75
2024/03/08 16:47:17;;;;;;;85.37;34.07;;;;;;;9.58;83.19;101106.19;4986473;57;1138873;-75
2024/03/08 16:52:22;;;;;;;54.47;24.83;;;;;;;9.26;84.19;101107.75;5050776;56;1138550;-77
2024/03/08 16:57:29;;;;;;;45.83;16.77;;;;;;;8.91;84.66;101113.03;5119268;56;1138552;-76
2024/03/08 17:02:35;;;;;;;36.97;18.73;;;;;;;8.59;85.54;101112.34;5098911;56;1138562;-75
2024/03/08 17:07:41;;;;;;;38.03;14.87;;;;;;;8.22;85.98;101111.86;5070531;54;1138703;-79
2024/03/08 17:12:49;;;;;;;33.53;15.07;;;;;;;8.00;86.98;101116.20;4930978;58;1138718;-77
2024/03/08 17:18:05;;;;;;;52.00;19.23;;;;;;;7.84;88.32;101118.00;4908750;57;1138468;-74
2024/03/08 17:23:13;;;;;;;58.23;16.50;;;;;;;7.68;89.06;101114.06;4916332;57;1138683;-75
2024/03/08 17:28:18;;;;;;;64.87;19.17;;;;;;;7.43;89.20;101119.00;4995905;56;1138540;-73
2024/03/08 17:33:24;;;;;;;52.83;17.83;;;;;;;7.14;90.12;101119.74;4930306;57;1138551;-76
2024/03/08 17:38:31;;;;;;;73.77;26.83;;;;;;;7.08;91.76;101113.48;4993291;57;1138701;-75
2024/03/08 17:43:41;;;;;;;56.80;20.37;;;;;;;7.03;92.44;101115.88;5053507;57;1138543;-76
2024/03/08 17:48:46;;;;;;;56.23;23.80;;;;;;;6.98;93.23;101110.50;4929993;58;1138469;-72
2024/03/08 17:53:52;;;;;;;182.53;78.47;;;;;;;6.81;93.14;101109.23;4980186;57;1138967;-77
2024/03/08 17:58:58;;;;;;;130.30;50.77;;;;;;;6.64;94.04;101107.02;4979931;57;1140695;-76
2024/03/08 18:04:11;;;;;;;83.03;34.43;;;;;;;6.46;94.41;101101.39;5010897;58;1140568;-76
2024/03/08 18:09:13;;;;;;;116.37;59.23;;;;;;;6.20;95.16;101093.98;4989810;57;1138820;-75
2024/03/08 18:14:19;;;;;;;109.37;49.15;;;;;;;6.05;96.90;101107.87;5095929;56;1140715;-76
2024/03/08 18:19:24;;;;;;;153.40;71.02;;;;;;;6.04;97.93;101099.61;5098356;56;1140872;-73
2024/03/08 18:24:30;;;;;;;133.97;62.00;;;;;;;6.01;98.17;101105.86;5119189;56;1140920;-70
2024/03/08 18:29:35;;;;;;;117.13;59.00;;;;;;;5.93;98.04;101095.75;5064736;56;1140858;-69
2024/03/08 18:34:43;;;;;;;132.10;66.47;;;;;;;5.84;98.15;101104.48;5010811;57;1140863;-73
2024/03/08 18:39:48;;;;;;;87.27;45.10;;;;;;;5.73;98.57;101098.45;5118789;55;1140842;-70
2024/03/08 18:44:55;;;;;;;125.13;64.60;;;;;;;5.60;99.44;101100.82;5098020;55;1138736;-78
2024/03/08 18:50:03;;;;;;;106.53;51.90;;;;;;;5.52;100.00;101099.47;5069416;56;1140879;-76
2024/03/08 18:55:16;;;;;;;229.97;115.40;;;;;;;5.50;100.00;101099.53;5117438;56;1148966;-73
2024/03/08 19:00:38;;;;;;;210.30;81.30;;;;;;;5.46;100.00;101096.70;5098718;56;1145177;-71
2024/03/08 19:05:46;;;;;;;257.47;97.73;;;;;;;5.44;100.00;101088.50;5098832;56;1143031;-77
2024/03/08 19:10:54;;;;;;;297.33;121.47;;;;;;;5.43;100.00;101086.80;5118322;56;1142932;-73
2024/03/08 19:15:59;;;;;;;272.07;112.73;;;;;;;5.41;100.00;101082.94;5099036;56;1144749;-71
2024/03/08 19:21:05;;;;;;;255.30;115.17;;;;;;;5.36;100.00;101080.98;5098837;56;1144874;-76
2024/03/08 19:26:14;;;;;;;155.70;74.30;;;;;;;5.28;100.00;101083.12;5031252;57;1145125;-73
2024/03/08 19:31:21;;;;;;;88.57;41.23;;;;;;;5.16;100.00;101083.24;5014725;57;1142860;-71
2024/03/08 19:36:27;;;;;;;102.80;47.25;;;;;;;5.03;100.00;101079.94;5007730;57;1140838;-77
2024/03/08 19:41:37;;;;;;;116.83;53.97;;;;;;;4.98;100.00;101075.36;5119647;55;1142808;-73
2024/03/08 19:46:45;;;;;;;182.20;66.20;;;;;;;4.94;100.00;101072.88;5099108;55;1143028;-72
2024/03/08 19:51:55;;;;;;;337.30;103.87;;;;;;;4.93;100.00;101072.94;5098354;56;1142994;-73
2024/03/08 19:57:06;;;;;;;398.97;114.57;;;;;;;4.92;100.00;101073.86;5103623;56;1144898;-74
2024/03/08 20:02:12;;;;;;;494.20;142.23;;;;;;;4.91;100.00;101065.60;5019679;57;1144832;-74
2024/03/08 20:07:18;;;;;;;386.23;106.37;;;;;;;4.90;100.00;101066.52;4979569;56;1144914;-71
2024/03/08 20:12:24;;;;;;;253.92;79.60;;;;;;;4.90;100.00;101067.37;5014617;57;1145145;-72
2024/03/08 20:17:35;;;;;;;275.93;84.37;;;;;;;4.90;100.00;101054.73;5033685;57;1142786;-73
2024/03/08 20:22:48;;;;;;;391.77;105.00;;;;;;;4.89;100.00;101058.27;5064925;56;1142933;-70
2024/03/08 20:28:05;;;;;;;342.00;99.83;;;;;;;4.78;100.00;101054.83;4942936;57;1145211;-74
2024/03/08 20:33:17;;;;;;;293.67;87.37;;;;;;;4.60;100.00;101052.56;4932852;57;1142753;-75
2024/03/08 20:38:33;;;;;;;221.53;72.20;;;;;;;4.47;100.00;101050.10;4874655;58;1142793;-70
2024/03/08 20:43:44;;;;;;;198.53;65.40;;;;;;;4.35;100.00;101048.48;4884965;57;1142809;-74
2024/03/08 20:49:02;;;;;;;172.70;66.80;;;;;;;4.22;100.00;101042.93;5008709;56;1142504;-74
2024/03/08 20:54:10;;;;;;;162.30;62.13;;;;;;;4.06;100.00;101049.27;5098292;56;1143009;-76
2024/03/08 20:59:16;;;;;;;135.80;52.65;;;;;;;3.90;100.00;101037.75;5027784;56;1142709;-74
2024/03/08 21:04:23;;;;;;;115.16;43.74;;;;;;;3.83;100.00;101037.59;5015664;56;1142800;-70
2024/03/08 21:09:36;;;;;;;104.57;42.63;;;;;;;3.73;100.00;101032.36;5034617;57;1143035;-73
2024/03/08 21:14:38;;;;;;;100.03;45.43;;;;;;;3.74;100.00;101031.45;4949676;57;1142815;-73
2024/03/08 21:19:47;;;;;;;107.97;46.47;;;;;;;3.78;100.00;101021.26;4997451;56;1142599;-77
2024/03/08 21:24:54;;;;;;;112.93;51.70;;;;;;;3.75;100.00;101021.38;5015473;57;1143208;-74
2024/03/08 21:30:01;;;;;;;121.17;55.83;;;;;;;3.66;100.00;101016.54;4996105;57;1142632;-71
2024/03/08 21:35:09;;;;;;;131.27;57.97;;;;;;;3.52;100.00;101013.15;4885157;57;1142825;-72
2024/03/08 21:40:25;;;;;;;119.55;51.92;;;;;;;3.43;100.00;101001.77;4876994;57;1143058;-75
2024/03/08 21:45:32;;;;;;;112.60;50.40;;;;;;;3.42;100.00;100998.76;4965796;58;1143007;-70
2024/03/08 21:50:38;;;;;;;159.13;64.27;;;;;;;3.42;100.00;100993.53;5059515;56;1142911;-75
2024/03/08 21:55:47;;;;;;;160.20;62.13;;;;;;;3.41;100.00;100991.82;5015997;57;1143316;-75
2024/03/08 22:00:53;;;;;;;155.10;55.73;;;;;;;3.42;100.00;100994.83;4916449;57;1142776;-73
2024/03/08 22:05:59;;;;;;;156.00;59.73;;;;;;;3.45;100.00;100994.27;4877115;58;1142701;-68
2024/03/08 22:11:06;;;;;;;168.00;67.57;;;;;;;3.43;100.00;100990.86;5016953;57;1142646;-72
2024/03/08 22:16:13;;;;;;;121.87;48.30;;;;;;;3.36;100.00;100990.69;4975436;56;1142983;-72
2024/03/08 22:21:19;;;;;;;185.55;70.00;;;;;;;3.28;100.00;100986.24;5007703;56;1142771;-71
2024/03/08 22:26:25;;;;;;;175.53;67.77;;;;;;;3.21;100.00;100991.80;5019511;56;1142769;-77
2024/03/08 22:31:35;;;;;;;89.20;39.73;;;;;;;3.12;100.00;100989.06;5038633;56;1142776;-73
2024/03/08 22:36:41;;;;;;;62.70;30.57;;;;;;;2.96;100.00;100986.66;5026357;56;1140972;-75
2024/03/08 22:41:46;;;;;;;78.33;36.70;;;;;;;2.79;100.00;100987.30;5078042;55;1140682;-73
2024/03/08 22:46:52;;;;;;;68.27;30.13;;;;;;;2.77;100.00;100979.97;5119251;56;1140740;-77